createdAt,value
2022-07-25T00:00:58.827Z,6.38
2022-07-25T00:03:28.463Z,5.78
2022-07-25T00:05:55.551Z,7.28
2022-07-25T00:08:22.507Z,6.50
2022-07-25T00:10:49.449Z,6.57
2022-07-25T00:13:16.376Z,7.38
2022-07-25T00:15:43.442Z,6.78
2022-07-25T00:18:10.524Z,7.03
2022-07-25T00:20:37.459Z,6.88
2022-07-25T00:23:04.400Z,6.40
2022-07-25T00:25:31.376Z,6.57
2022-07-25T00:27:58.284Z,6.28
2022-07-25T00:30:25.228Z,6.63
2022-07-25T00:32:52.645Z,6.93
2022-07-25T00:35:19.682Z,7.53
2022-07-25T00:37:46.690Z,6.60
2022-07-25T00:40:13.963Z,6.05
2022-07-25T00:42:40.930Z,6.70
2022-07-25T00:45:08.377Z,6.05
2022-07-25T00:47:35.414Z,6.00
2022-07-25T00:50:02.539Z,6.10
2022-07-25T00:52:29.650Z,7.00
2022-07-25T00:54:57.193Z,6.30
2022-07-25T00:57:24.182Z,6.97
2022-07-25T00:59:51.363Z,6.18
2022-07-25T01:02:18.391Z,6.32
2022-07-25T01:04:45.506Z,6.57
2022-07-25T01:07:12.692Z,6.10
2022-07-25T01:09:39.792Z,6.78
2022-07-25T01:12:06.977Z,6.90
2022-07-25T01:14:33.939Z,6.85
2022-07-25T01:17:01.263Z,5.72
2022-07-25T01:19:28.305Z,6.55
2022-07-25T01:21:56.346Z,6.65
2022-07-25T01:24:23.439Z,5.85
2022-07-25T01:26:50.381Z,6.82
2022-07-25T01:29:17.324Z,6.43
2022-07-25T01:31:44.457Z,6.35
2022-07-25T01:34:11.374Z,7.10
2022-07-25T01:36:38.684Z,6.63
2022-07-25T01:39:06.001Z,6.72
2022-07-25T01:41:33.374Z,6.78
2022-07-25T01:44:00.682Z,6.93
2022-07-25T01:46:28.167Z,6.68
2022-07-25T01:48:55.590Z,5.80
2022-07-25T01:51:22.929Z,6.63
2022-07-25T01:53:53.992Z,6.70
2022-07-25T01:56:22.516Z,6.50
2022-07-25T01:58:49.928Z,6.18
2022-07-25T02:01:17.460Z,6.68
2022-07-25T02:03:46.670Z,6.07
2022-07-25T02:06:13.979Z,6.53
2022-07-25T02:08:41.313Z,7.40
2022-07-25T02:11:08.644Z,7.57
2022-07-25T02:13:35.963Z,7.00
2022-07-25T02:16:03.233Z,7.28
2022-07-25T02:18:30.774Z,7.07
2022-07-25T02:20:58.040Z,6.78
2022-07-25T02:23:25.388Z,6.90
2022-07-25T02:25:52.778Z,6.28
2022-07-25T02:28:20.111Z,7.35
2022-07-25T02:30:47.467Z,6.93
2022-07-25T02:33:14.838Z,8.68
2022-07-25T02:35:42.350Z,6.65
2022-07-25T02:38:09.662Z,8.43
2022-07-25T02:40:37.009Z,7.50
2022-07-25T02:43:04.325Z,6.90
2022-07-25T02:45:31.682Z,6.72
2022-07-25T02:48:01.620Z,6.20
2022-07-25T02:50:29.115Z,6.70
2022-07-25T02:52:56.370Z,6.60
2022-07-25T02:55:23.768Z,7.53
2022-07-25T02:57:51.056Z,6.20
2022-07-25T03:00:18.515Z,6.75
2022-07-25T03:02:45.915Z,7.15
2022-07-25T03:05:14.770Z,7.53
2022-07-25T03:07:42.641Z,6.50
2022-07-25T03:10:11.679Z,7.43
2022-07-25T03:12:39.608Z,6.78
2022-07-25T03:15:07.498Z,6.95
2022-07-25T03:17:34.815Z,6.07
2022-07-25T03:20:02.100Z,6.65
2022-07-25T03:22:29.475Z,6.50
2022-07-25T03:24:56.742Z,7.50
2022-07-25T03:27:24.064Z,7.35
2022-07-25T03:29:51.508Z,6.47
2022-07-25T03:32:18.784Z,7.03
2022-07-25T03:34:46.056Z,7.03
2022-07-25T03:37:13.330Z,7.40
2022-07-25T03:39:40.775Z,6.72
2022-07-25T03:42:08.077Z,7.13
2022-07-25T03:44:35.829Z,7.90
2022-07-25T03:47:03.174Z,6.65
2022-07-25T03:49:30.463Z,7.05
2022-07-25T03:51:58.209Z,7.13
2022-07-25T03:54:25.513Z,7.47
2022-07-25T03:56:53.146Z,7.18
2022-07-25T03:59:21.610Z,7.10
2022-07-25T04:01:49.635Z,7.18
2022-07-25T04:04:17.273Z,6.57
2022-07-25T04:06:45.596Z,7.00
2022-07-25T04:09:13.273Z,7.28
2022-07-25T04:11:40.759Z,6.70
2022-07-25T04:14:08.979Z,6.97
2022-07-25T04:16:36.925Z,5.95
2022-07-25T04:19:05.264Z,6.55
2022-07-25T04:21:34.047Z,6.22
2022-07-25T04:24:01.542Z,6.72
2022-07-25T04:26:28.855Z,6.13
2022-07-25T04:28:57.802Z,7.22
2022-07-25T04:31:26.158Z,7.25
2022-07-25T04:33:53.528Z,6.57
2022-07-25T04:36:20.861Z,6.85
2022-07-25T04:38:48.108Z,8.80
2022-07-25T04:41:15.476Z,7.10
2022-07-25T04:43:48.335Z,7.35
2022-07-25T04:46:19.859Z,5.85
2022-07-25T04:48:47.274Z,5.82
2022-07-25T04:51:15.522Z,5.88
2022-07-25T04:53:42.907Z,6.75
2022-07-25T04:56:10.495Z,6.45
2022-07-25T04:58:37.795Z,6.07
2022-07-25T05:01:07.771Z,6.78
2022-07-25T05:03:35.319Z,6.47
2022-07-25T05:06:02.692Z,6.22
2022-07-25T05:08:30.796Z,6.50
2022-07-25T05:10:58.083Z,6.53
2022-07-25T05:13:25.401Z,7.43
2022-07-25T05:15:53.063Z,6.30
2022-07-25T05:18:20.725Z,6.80
2022-07-25T05:20:48.039Z,7.03
2022-07-25T05:23:15.342Z,5.88
2022-07-25T05:25:42.649Z,6.70
2022-07-25T05:28:10.010Z,6.05
2022-07-25T05:30:39.919Z,6.53
2022-07-25T05:33:07.544Z,5.97
2022-07-25T05:35:34.942Z,6.78
2022-07-25T05:38:02.403Z,5.72
2022-07-25T05:40:29.742Z,5.93
2022-07-25T05:43:02.393Z,6.90
2022-07-25T05:45:30.553Z,6.97
2022-07-25T05:47:57.908Z,5.80
2022-07-25T05:50:25.229Z,5.78
2022-07-25T05:52:52.511Z,6.15
2022-07-25T05:55:20.088Z,6.47
2022-07-25T05:57:47.459Z,6.10
2022-07-25T06:00:14.953Z,6.00
2022-07-25T06:02:42.316Z,5.68
2022-07-25T06:05:09.999Z,6.18
2022-07-25T06:07:37.312Z,6.22
2022-07-25T06:10:05.406Z,5.88
2022-07-25T06:12:33.785Z,6.15
2022-07-25T06:15:04.303Z,5.80
2022-07-25T06:17:32.667Z,5.47
2022-07-25T06:20:00.475Z,5.40
2022-07-25T06:22:27.787Z,6.38
2022-07-25T06:24:55.102Z,6.03
2022-07-25T06:27:26.131Z,5.70
2022-07-25T06:29:56.395Z,6.22
2022-07-25T06:32:23.655Z,6.03
2022-07-25T06:34:51.261Z,5.80
2022-07-25T06:37:18.690Z,6.45
2022-07-25T06:39:46.358Z,5.90
2022-07-25T06:42:13.723Z,6.35
2022-07-25T06:44:41.194Z,6.60
2022-07-25T06:47:12.760Z,6.20
2022-07-25T06:49:40.677Z,6.75
2022-07-25T06:52:08.128Z,5.93
2022-07-25T06:54:35.566Z,5.70
2022-07-25T06:57:02.955Z,6.25
2022-07-25T06:59:30.270Z,5.50
2022-07-25T07:01:57.615Z,7.10
2022-07-25T07:04:24.948Z,8.07
2022-07-25T07:06:52.411Z,6.50
2022-07-25T07:09:19.751Z,8.07
2022-07-25T07:11:47.103Z,6.90
2022-07-25T07:14:14.041Z,5.90
2022-07-25T07:16:42.453Z,6.15
2022-07-25T07:19:11.212Z,6.03
2022-07-25T07:21:38.582Z,6.38
2022-07-25T07:24:23.199Z,7.38
2022-07-25T07:26:50.909Z,6.78
2022-07-25T07:29:17.817Z,6.80
2022-07-25T07:31:44.843Z,6.47
2022-07-25T07:34:11.902Z,6.63
2022-07-25T07:36:43.324Z,6.53
2022-07-25T07:39:10.230Z,6.80
2022-07-25T07:41:37.255Z,7.05
2022-07-25T07:44:05.507Z,6.85
2022-07-25T07:46:32.525Z,7.07
2022-07-25T07:48:59.762Z,6.10
2022-07-25T07:51:26.775Z,6.03
2022-07-25T07:54:12.563Z,6.00
2022-07-25T07:56:39.581Z,5.78
2022-07-25T07:59:06.687Z,5.95
2022-07-25T08:01:34.791Z,6.10
2022-07-25T08:04:01.842Z,7.00
2022-07-25T08:06:29.092Z,5.90
2022-07-25T08:08:56.069Z,5.45
2022-07-25T08:11:23.008Z,5.40
2022-07-25T08:13:49.959Z,5.90
2022-07-25T08:16:16.968Z,6.15
2022-07-25T08:18:43.971Z,6.40
2022-07-25T08:21:11.763Z,5.70
2022-07-25T08:23:39.149Z,6.15
2022-07-25T08:26:06.838Z,5.65
2022-07-25T08:28:33.836Z,5.72
2022-07-25T08:31:00.890Z,6.70
2022-07-25T08:33:28.432Z,5.68
2022-07-25T08:35:58.935Z,6.03
2022-07-25T08:38:28.138Z,5.15
2022-07-25T08:40:56.442Z,7.13
2022-07-25T08:43:23.983Z,6.15
2022-07-25T08:45:54.026Z,5.43
2022-07-25T08:48:24.383Z,6.32
2022-07-25T08:50:52.443Z,5.88
2022-07-25T08:53:36.280Z,5.95
2022-07-25T08:56:15.982Z,5.40
2022-07-25T08:58:44.694Z,5.97
2022-07-25T09:01:13.020Z,6.50
2022-07-25T09:03:41.551Z,6.13
2022-07-25T09:06:20.675Z,6.05
2022-07-25T09:08:58.724Z,6.15
2022-07-25T09:11:31.311Z,5.68
2022-07-25T09:14:00.298Z,5.53
2022-07-25T09:16:35.828Z,6.35
2022-07-25T09:19:14.054Z,6.32
2022-07-25T09:21:42.462Z,6.53
2022-07-25T09:24:13.452Z,6.15
2022-07-25T09:26:51.949Z,5.78
2022-07-25T09:29:24.807Z,6.22
2022-07-25T09:31:53.295Z,6.43
2022-07-25T09:34:38.240Z,6.57
2022-07-25T09:37:12.347Z,5.90
2022-07-25T09:39:47.006Z,6.10
2022-07-25T09:42:17.189Z,5.75
2022-07-25T09:44:45.156Z,5.40
2022-07-25T09:47:13.901Z,6.15
2022-07-25T09:49:42.722Z,5.88
2022-07-25T09:52:11.594Z,5.45
2022-07-25T09:54:40.082Z,5.82
2022-07-25T09:57:07.177Z,6.20
2022-07-25T09:59:34.991Z,5.50
2022-07-25T10:02:29.725Z,5.13
2022-07-25T10:04:56.701Z,4.78
2022-07-25T10:07:28.230Z,4.07
2022-07-25T10:09:59.471Z,4.15
2022-07-25T10:12:26.410Z,4.20
2022-07-25T10:15:12.328Z,4.20
2022-07-25T10:17:41.637Z,3.72
2022-07-25T10:20:10.352Z,3.95
2022-07-25T10:22:58.466Z,3.75
2022-07-25T10:25:25.843Z,4.32
2022-07-25T10:28:01.075Z,4.07
2022-07-25T10:30:36.630Z,3.95
2022-07-25T10:33:11.154Z,4.00
2022-07-25T10:35:38.203Z,3.42
2022-07-25T10:38:06.528Z,3.60
2022-07-25T10:40:44.828Z,4.28
2022-07-25T10:43:14.226Z,4.10
2022-07-25T10:45:45.691Z,4.40
2022-07-25T10:48:41.979Z,3.72
2022-07-25T10:51:13.918Z,4.35
2022-07-25T10:53:46.574Z,4.65
2022-07-25T10:56:17.688Z,4.25
2022-07-25T10:58:51.889Z,3.88
2022-07-25T11:01:30.511Z,3.72
2022-07-25T11:04:00.577Z,3.55
2022-07-25T11:06:38.802Z,3.13
2022-07-25T11:09:19.257Z,3.10
2022-07-25T11:11:50.384Z,3.15
2022-07-25T11:14:23.000Z,3.90
2022-07-25T11:16:53.502Z,3.90
2022-07-25T11:19:23.561Z,3.70
2022-07-25T11:22:01.516Z,2.75
2022-07-25T11:24:43.113Z,3.97
2022-07-25T11:27:12.956Z,3.17
2022-07-25T11:29:40.966Z,3.50
2022-07-25T11:32:12.665Z,3.13
2022-07-25T11:34:47.430Z,3.55
2022-07-25T11:37:15.933Z,3.40
2022-07-25T11:39:45.683Z,3.10
2022-07-25T11:42:16.243Z,2.65
2022-07-25T11:44:47.839Z,3.00
2022-07-25T11:47:31.485Z,3.08
2022-07-25T11:50:01.362Z,3.92
2022-07-25T11:52:37.891Z,3.60
2022-07-25T11:55:10.414Z,4.00
2022-07-25T11:58:00.205Z,3.10
2022-07-25T12:00:27.762Z,2.92
2022-07-25T12:02:55.092Z,3.15
2022-07-25T12:05:31.473Z,2.90
2022-07-25T12:08:00.927Z,3.03
2022-07-25T12:10:35.785Z,2.80
2022-07-25T12:13:04.435Z,3.42
2022-07-25T12:15:35.623Z,3.70
2022-07-25T12:18:03.259Z,2.95
2022-07-25T12:20:35.623Z,2.80
2022-07-25T12:23:04.836Z,3.17
2022-07-25T12:25:36.397Z,2.75
2022-07-25T12:28:03.890Z,2.95
2022-07-25T12:30:32.015Z,2.90
2022-07-25T12:33:00.169Z,3.38
2022-07-25T12:35:28.011Z,3.92
2022-07-25T12:37:55.022Z,3.70
2022-07-25T12:40:22.523Z,3.53
2022-07-25T12:42:50.470Z,3.88
2022-07-25T12:45:18.030Z,3.90
2022-07-25T12:47:46.242Z,3.70
2022-07-25T12:50:13.853Z,5.07
2022-07-25T12:52:41.714Z,4.20
2022-07-25T12:55:11.283Z,4.25
2022-07-25T12:57:39.211Z,3.92
2022-07-25T13:00:10.048Z,3.83
2022-07-25T13:02:38.002Z,3.75
2022-07-25T13:05:05.896Z,3.85
2022-07-25T13:07:33.547Z,3.58
2022-07-25T13:10:00.972Z,3.80
2022-07-25T13:12:27.977Z,3.33
2022-07-25T13:14:54.916Z,2.38
2022-07-25T13:17:26.922Z,3.15
2022-07-25T13:19:55.226Z,2.55
2022-07-25T13:22:22.145Z,2.60
2022-07-25T13:24:49.079Z,2.85
2022-07-25T13:27:18.963Z,2.50
2022-07-25T13:29:46.135Z,2.42
2022-07-25T13:32:13.777Z,2.40
2022-07-25T13:34:40.819Z,2.92
2022-07-25T13:37:07.887Z,2.30
2022-07-25T13:39:35.930Z,2.35
2022-07-25T13:42:03.609Z,2.47
2022-07-25T13:44:30.570Z,1.98
2022-07-25T13:46:58.793Z,2.42
2022-07-25T13:49:26.125Z,2.20
2022-07-25T13:51:53.248Z,2.25
2022-07-25T13:54:21.232Z,1.90
2022-07-25T13:56:48.325Z,2.25
2022-07-25T13:59:20.947Z,2.22
2022-07-25T14:01:49.086Z,1.90
2022-07-25T14:04:16.366Z,2.05
2022-07-25T14:06:43.712Z,2.30
2022-07-25T14:09:11.089Z,2.42
2022-07-25T14:11:38.264Z,2.40
2022-07-25T14:14:05.302Z,2.30
2022-07-25T14:16:33.866Z,3.08
2022-07-25T14:19:02.207Z,2.20
2022-07-25T14:21:30.575Z,2.30
2022-07-25T14:23:57.571Z,2.30
2022-07-25T14:26:25.898Z,2.30
2022-07-25T14:28:52.842Z,2.47
2022-07-25T14:31:19.826Z,2.30
2022-07-25T14:33:47.072Z,2.60
2022-07-25T14:36:14.024Z,2.85
2022-07-25T14:38:41.077Z,2.60
2022-07-25T14:41:12.886Z,2.72
2022-07-25T14:43:40.996Z,2.47
2022-07-25T14:46:09.091Z,2.95
2022-07-25T14:48:37.604Z,2.83
2022-07-25T14:51:05.919Z,2.92
2022-07-25T14:53:34.370Z,2.83
2022-07-25T14:56:04.266Z,2.55
2022-07-25T14:58:31.953Z,3.75
2022-07-25T15:00:59.113Z,2.95
2022-07-25T15:03:26.213Z,2.50
2022-07-25T15:05:53.264Z,2.88
2022-07-25T15:08:20.248Z,2.55
2022-07-25T15:10:47.367Z,2.70
2022-07-25T15:13:30.494Z,2.85
2022-07-25T15:15:59.166Z,2.83
2022-07-25T15:18:26.222Z,2.55
2022-07-25T15:20:53.455Z,3.15
2022-07-25T15:23:21.275Z,2.85
2022-07-25T15:26:04.777Z,2.53
2022-07-25T15:28:37.654Z,2.42
2022-07-25T15:31:05.682Z,2.20
2022-07-25T15:33:33.576Z,2.65
2022-07-25T15:36:00.922Z,2.17
2022-07-25T15:38:29.191Z,2.17
2022-07-25T15:40:56.531Z,1.90
2022-07-25T15:43:24.126Z,1.88
2022-07-25T15:45:52.054Z,2.20
2022-07-25T15:48:19.464Z,2.17
2022-07-25T15:50:47.932Z,2.15
2022-07-25T15:53:15.322Z,1.90
2022-07-25T15:55:43.055Z,2.38
2022-07-25T15:58:11.028Z,2.53
2022-07-25T16:00:38.989Z,1.98
2022-07-25T16:03:07.172Z,1.95
2022-07-25T16:05:34.672Z,1.55
2022-07-25T16:08:02.313Z,2.10
2022-07-25T16:10:30.310Z,2.30
2022-07-25T16:12:57.725Z,1.77
2022-07-25T16:15:25.383Z,2.17
2022-07-25T16:18:00.234Z,1.80
2022-07-25T16:20:29.663Z,1.98
2022-07-25T16:22:59.208Z,1.60
2022-07-25T16:25:27.635Z,2.03
2022-07-25T16:27:55.205Z,1.80
2022-07-25T16:30:22.815Z,1.58
2022-07-25T16:32:50.140Z,1.90
2022-07-25T16:35:17.432Z,1.98
2022-07-25T16:37:45.026Z,2.08
2022-07-25T16:40:12.615Z,1.95
2022-07-25T16:42:39.966Z,1.88
2022-07-25T16:45:07.799Z,1.92
2022-07-25T16:47:35.212Z,1.98
2022-07-25T16:50:02.593Z,1.70
2022-07-25T16:52:29.972Z,1.80
2022-07-25T16:54:57.256Z,2.03
2022-07-25T16:57:25.271Z,2.25
2022-07-25T16:59:53.725Z,1.85
2022-07-25T17:02:26.209Z,2.13
2022-07-25T17:04:56.483Z,2.00
2022-07-25T17:07:23.837Z,1.95
2022-07-25T17:09:51.208Z,1.75
2022-07-25T17:12:18.691Z,1.50
2022-07-25T17:14:46.419Z,1.40
2022-07-25T17:17:13.889Z,1.90
2022-07-25T17:19:41.402Z,2.03
2022-07-25T17:22:09.163Z,1.67
2022-07-25T17:24:36.805Z,1.75
2022-07-25T17:27:04.266Z,1.80
2022-07-25T17:29:31.642Z,2.10
2022-07-25T17:31:59.012Z,2.10
2022-07-25T17:34:26.977Z,1.55
2022-07-25T17:36:54.929Z,1.80
2022-07-25T17:39:22.476Z,1.85
2022-07-25T17:41:52.750Z,1.70
2022-07-25T17:44:20.537Z,1.80
2022-07-25T17:46:50.246Z,1.42
2022-07-25T17:49:17.933Z,1.30
2022-07-25T17:51:45.501Z,1.00
2022-07-25T17:54:12.889Z,0.90
2022-07-25T17:56:40.346Z,1.02
2022-07-25T17:59:08.616Z,0.93
2022-07-25T18:01:36.138Z,1.35
2022-07-25T18:04:03.742Z,1.65
2022-07-25T18:06:31.285Z,0.90
2022-07-25T18:08:58.600Z,0.98
2022-07-25T18:11:26.425Z,1.02
2022-07-25T18:13:53.812Z,1.20
2022-07-25T18:16:21.263Z,1.38
2022-07-25T18:18:48.634Z,1.30
2022-07-25T18:21:15.954Z,0.80
2022-07-25T18:23:43.282Z,0.90
2022-07-25T18:26:10.744Z,1.27
2022-07-25T18:28:38.142Z,0.70
2022-07-25T18:31:06.004Z,1.02
2022-07-25T18:33:33.412Z,1.17
2022-07-25T18:36:05.456Z,0.90
2022-07-25T18:38:34.675Z,0.90
2022-07-25T18:41:27.627Z,1.50
2022-07-25T18:43:50.455Z,0.93
2022-07-25T18:46:18.435Z,0.80
2022-07-25T18:48:46.191Z,1.25
2022-07-25T18:51:13.591Z,1.17
2022-07-25T18:53:44.733Z,0.80
2022-07-25T18:56:14.861Z,1.02
2022-07-25T18:58:42.182Z,1.35
2022-07-25T19:01:09.733Z,1.20
2022-07-25T19:03:37.797Z,0.90
2022-07-25T19:06:05.367Z,1.00
2022-07-25T19:08:33.251Z,0.93
2022-07-25T19:11:00.589Z,0.82
2022-07-25T19:13:48.153Z,1.05
2022-07-25T19:16:16.328Z,0.77
2022-07-25T19:18:43.888Z,0.95
2022-07-25T19:21:11.239Z,1.23
2022-07-25T19:23:38.814Z,0.70
2022-07-25T19:26:06.354Z,0.95
2022-07-25T19:28:33.825Z,1.30
2022-07-25T19:31:01.367Z,1.95
2022-07-25T19:33:34.781Z,0.95
2022-07-25T19:36:04.421Z,1.00
2022-07-25T19:38:31.820Z,0.90
2022-07-25T19:40:59.451Z,0.93
2022-07-25T19:43:26.788Z,1.20
2022-07-25T19:45:54.228Z,0.70
2022-07-25T19:48:24.197Z,0.65
2022-07-25T19:50:52.157Z,0.90
2022-07-25T19:53:19.737Z,1.25
2022-07-25T19:55:47.549Z,1.10
2022-07-25T19:58:14.865Z,1.48
2022-07-25T20:00:42.292Z,0.98
2022-07-25T20:03:10.042Z,0.80
2022-07-25T20:05:39.658Z,0.90
2022-07-25T20:08:07.224Z,0.77
2022-07-25T20:10:35.720Z,0.80
2022-07-25T20:13:03.074Z,0.80
2022-07-25T20:15:30.711Z,0.98
2022-07-25T20:17:59.218Z,0.85
2022-07-25T20:20:26.901Z,1.55
2022-07-25T20:22:54.796Z,0.98
2022-07-25T20:25:22.838Z,0.70
2022-07-25T20:27:50.187Z,0.80
2022-07-25T20:30:18.124Z,0.73
2022-07-25T20:32:45.532Z,1.83
2022-07-25T20:35:13.088Z,0.80
2022-07-25T20:37:40.431Z,1.20
2022-07-25T20:40:09.406Z,1.15
2022-07-25T20:42:37.600Z,0.88
2022-07-25T20:45:06.052Z,0.80
2022-07-25T20:47:34.232Z,1.00
2022-07-25T20:50:01.940Z,1.63
2022-07-25T20:52:30.424Z,0.93
2022-07-25T20:54:57.785Z,0.80
2022-07-25T20:57:25.218Z,0.70
2022-07-25T20:59:52.536Z,0.73
2022-07-25T21:02:19.991Z,0.70
2022-07-25T21:04:48.665Z,0.90
2022-07-25T21:07:19.487Z,0.82
2022-07-25T21:09:46.787Z,1.50
2022-07-25T21:12:14.163Z,0.82
2022-07-25T21:14:41.476Z,0.90
2022-07-25T21:17:09.076Z,0.90
2022-07-25T21:19:36.428Z,0.88
2022-07-25T21:22:04.201Z,0.98
2022-07-25T21:24:32.613Z,1.17
2022-07-25T21:26:59.961Z,0.80
2022-07-25T21:29:27.339Z,1.20
2022-07-25T21:31:54.714Z,0.90
2022-07-25T21:34:22.106Z,1.23
2022-07-25T21:36:49.413Z,0.70
2022-07-25T21:39:17.232Z,1.45
2022-07-25T21:41:46.587Z,0.77
2022-07-25T21:44:14.133Z,1.08
2022-07-25T21:46:42.285Z,1.35
2022-07-25T21:49:41.201Z,1.02
2022-07-25T21:52:13.570Z,1.13
2022-07-25T21:54:41.989Z,1.00
2022-07-25T21:57:13.533Z,1.00
2022-07-25T21:59:42.141Z,1.00
2022-07-25T22:02:09.616Z,1.23
2022-07-25T22:04:37.294Z,1.10
2022-07-25T22:07:04.698Z,0.90
2022-07-25T22:09:32.043Z,1.10
2022-07-25T22:11:59.282Z,0.95
2022-07-25T22:14:26.793Z,0.98
2022-07-25T22:16:54.332Z,0.82
2022-07-25T22:19:22.671Z,1.10
2022-07-25T22:21:50.364Z,0.90
2022-07-25T22:24:17.688Z,0.98
2022-07-25T22:26:44.977Z,1.00
2022-07-25T22:29:12.714Z,1.45
2022-07-25T22:31:40.446Z,1.40
2022-07-25T22:34:07.827Z,1.52
2022-07-25T22:36:35.171Z,1.20
2022-07-25T22:39:02.750Z,1.20
2022-07-25T22:41:30.082Z,1.20
2022-07-25T22:43:59.856Z,1.77
2022-07-25T22:46:28.866Z,1.10
2022-07-25T22:48:56.633Z,1.33
2022-07-25T22:51:24.192Z,1.48
2022-07-25T22:53:51.693Z,1.00
2022-07-25T22:56:18.946Z,0.90
2022-07-25T22:58:48.785Z,1.10
2022-07-25T23:01:17.270Z,1.38
2022-07-25T23:03:44.710Z,1.08
2022-07-25T23:06:12.361Z,1.00
2022-07-25T23:08:39.720Z,1.02
2022-07-25T23:11:07.294Z,1.30
2022-07-25T23:13:34.894Z,1.10
2022-07-25T23:16:03.476Z,1.00
2022-07-25T23:18:31.124Z,1.17
2022-07-25T23:20:58.618Z,1.20
2022-07-25T23:23:26.229Z,1.77
2022-07-25T23:25:53.514Z,1.30
2022-07-25T23:28:21.059Z,1.10
2022-07-25T23:30:48.434Z,1.30
2022-07-25T23:33:15.855Z,1.20
2022-07-25T23:35:43.786Z,1.17
2022-07-25T23:38:11.157Z,1.20
2022-07-25T23:40:38.413Z,1.23
2022-07-25T23:43:05.747Z,1.27
2022-07-25T23:45:33.088Z,1.48
2022-07-25T23:48:01.130Z,1.15
2022-07-25T23:50:28.515Z,1.40
2022-07-25T23:52:55.823Z,1.50
2022-07-25T23:55:23.331Z,1.20
2022-07-25T23:57:50.601Z,1.20
